sensor_id;sensor_type;location;lat;lon;timestamp;P1;durP1;ratioP1;P2;durP2;ratioP2
27225;SDS011;14732;51.074;3.788;2023-03-01T00:01:06;9.25;;;6.40;;
27225;SDS011;14732;51.074;3.788;2023-03-01T00:03:34;9.85;;;6.13;;
27225;SDS011;14732;51.074;3.788;2023-03-01T00:06:01;9.48;;;6.35;;
27225;SDS011;14732;51.074;3.788;2023-03-01T00:08:27;8.95;;;6.50;;
27225;SDS011;14732;51.074;3.788;2023-03-01T00:16:41;9.90;;;6.07;;
27225;SDS011;14732;51.074;3.788;2023-03-01T00:19:07;10.07;;;6.82;;
27225;SDS011;14732;51.074;3.788;2023-03-01T00:21:36;9.25;;;6.43;;
27225;SDS011;14732;51.074;3.788;2023-03-01T00:24:01;8.70;;;6.65;;
27225;SDS011;14732;51.074;3.788;2023-03-01T00:26:27;10.00;;;6.85;;
27225;SDS011;14732;51.074;3.788;2023-03-01T00:28:54;9.52;;;6.90;;
27225;SDS011;14732;51.074;3.788;2023-03-01T00:31:24;8.88;;;6.65;;
27225;SDS011;14732;51.074;3.788;2023-03-01T00:33:55;10.50;;;7.15;;
27225;SDS011;14732;51.074;3.788;2023-03-01T00:36:24;11.65;;;7.45;;
27225;SDS011;14732;51.074;3.788;2023-03-01T00:38:51;13.70;;;6.90;;
27225;SDS011;14732;51.074;3.788;2023-03-01T00:41:17;9.38;;;6.80;;
27225;SDS011;14732;51.074;3.788;2023-03-01T00:43:44;12.07;;;7.03;;
27225;SDS011;14732;51.074;3.788;2023-03-01T00:46:11;10.07;;;7.20;;
27225;SDS011;14732;51.074;3.788;2023-03-01T00:48:39;8.37;;;7.00;;
27225;SDS011;14732;51.074;3.788;2023-03-01T00:51:05;12.70;;;7.10;;
27225;SDS011;14732;51.074;3.788;2023-03-01T00:53:33;13.07;;;7.38;;
27225;SDS011;14732;51.074;3.788;2023-03-01T00:55:59;11.45;;;7.18;;
27225;SDS011;14732;51.074;3.788;2023-03-01T00:58:25;13.48;;;7.72;;
27225;SDS011;14732;51.074;3.788;2023-03-01T01:00:51;13.95;;;8.40;;
27225;SDS011;14732;51.074;3.788;2023-03-01T01:03:17;11.27;;;8.02;;
27225;SDS011;14732;51.074;3.788;2023-03-01T01:05:43;10.85;;;7.88;;
27225;SDS011;14732;51.074;3.788;2023-03-01T01:08:09;10.10;;;7.75;;
27225;SDS011;14732;51.074;3.788;2023-03-01T01:10:35;10.30;;;7.32;;
27225;SDS011;14732;51.074;3.788;2023-03-01T01:13:01;12.27;;;7.60;;
27225;SDS011;14732;51.074;3.788;2023-03-01T01:15:26;12.63;;;7.43;;
27225;SDS011;14732;51.074;3.788;2023-03-01T01:17:52;14.43;;;7.82;;
27225;SDS011;14732;51.074;3.788;2023-03-01T01:20:18;11.75;;;8.43;;
27225;SDS011;14732;51.074;3.788;2023-03-01T01:22:44;12.43;;;8.10;;
27225;SDS011;14732;51.074;3.788;2023-03-01T01:25:09;16.27;;;8.68;;
27225;SDS011;14732;51.074;3.788;2023-03-01T01:27:35;12.60;;;8.18;;
27225;SDS011;14732;51.074;3.788;2023-03-01T01:30:01;12.68;;;8.60;;
27225;SDS011;14732;51.074;3.788;2023-03-01T01:32:28;12.88;;;8.60;;
27225;SDS011;14732;51.074;3.788;2023-03-01T01:34:54;16.70;;;9.75;;
27225;SDS011;14732;51.074;3.788;2023-03-01T01:37:20;13.15;;;9.45;;
27225;SDS011;14732;51.074;3.788;2023-03-01T01:39:46;14.88;;;9.90;;
27225;SDS011;14732;51.074;3.788;2023-03-01T01:42:15;17.00;;;10.20;;
27225;SDS011;14732;51.074;3.788;2023-03-01T01:44:42;14.02;;;10.10;;
27225;SDS011;14732;51.074;3.788;2023-03-01T01:47:18;17.42;;;10.38;;
27225;SDS011;14732;51.074;3.788;2023-03-01T01:49:48;13.75;;;10.35;;
27225;SDS011;14732;51.074;3.788;2023-03-01T01:52:20;14.80;;;10.43;;
27225;SDS011;14732;51.074;3.788;2023-03-01T01:57:25;16.98;;;10.38;;
27225;SDS011;14732;51.074;3.788;2023-03-01T01:59:55;14.40;;;9.95;;
27225;SDS011;14732;51.074;3.788;2023-03-01T02:02:23;17.23;;;9.68;;
27225;SDS011;14732;51.074;3.788;2023-03-01T02:04:52;17.42;;;10.68;;
27225;SDS011;14732;51.074;3.788;2023-03-01T02:07:23;17.35;;;10.52;;
27225;SDS011;14732;51.074;3.788;2023-03-01T02:09:51;20.02;;;11.90;;
27225;SDS011;14732;51.074;3.788;2023-03-01T02:12:19;17.30;;;11.40;;
27225;SDS011;14732;51.074;3.788;2023-03-01T02:14:48;18.10;;;11.82;;
27225;SDS011;14732;51.074;3.788;2023-03-01T02:17:14;18.52;;;12.45;;
27225;SDS011;14732;51.074;3.788;2023-03-01T02:20:43;19.65;;;11.98;;
27225;SDS011;14732;51.074;3.788;2023-03-01T02:22:44;19.02;;;11.43;;
27225;SDS011;14732;51.074;3.788;2023-03-01T02:27:52;17.80;;;11.60;;
27225;SDS011;14732;51.074;3.788;2023-03-01T02:32:49;21.52;;;11.23;;
27225;SDS011;14732;51.074;3.788;2023-03-01T02:35:16;19.83;;;11.70;;
27225;SDS011;14732;51.074;3.788;2023-03-01T02:37:43;19.38;;;12.02;;
27225;SDS011;14732;51.074;3.788;2023-03-01T02:40:14;18.73;;;12.25;;
27225;SDS011;14732;51.074;3.788;2023-03-01T02:42:47;17.95;;;12.05;;
27225;SDS011;14732;51.074;3.788;2023-03-01T02:45:19;19.15;;;12.15;;
27225;SDS011;14732;51.074;3.788;2023-03-01T02:47:46;20.45;;;13.05;;
27225;SDS011;14732;51.074;3.788;2023-03-01T02:55:25;22.75;;;13.43;;
27225;SDS011;14732;51.074;3.788;2023-03-01T02:57:52;20.70;;;12.45;;
27225;SDS011;14732;51.074;3.788;2023-03-01T03:00:27;27.10;;;13.95;;
27225;SDS011;14732;51.074;3.788;2023-03-01T03:02:58;23.45;;;14.18;;
27225;SDS011;14732;51.074;3.788;2023-03-01T03:05:25;21.48;;;13.70;;
27225;SDS011;14732;51.074;3.788;2023-03-01T03:07:54;24.20;;;14.57;;
27225;SDS011;14732;51.074;3.788;2023-03-01T03:10:26;22.45;;;14.32;;
27225;SDS011;14732;51.074;3.788;2023-03-01T03:12:58;24.90;;;15.15;;
27225;SDS011;14732;51.074;3.788;2023-03-01T03:15:25;26.35;;;14.18;;
27225;SDS011;14732;51.074;3.788;2023-03-01T03:17:52;25.70;;;14.27;;
27225;SDS011;14732;51.074;3.788;2023-03-01T03:20:19;24.60;;;14.68;;
27225;SDS011;14732;51.074;3.788;2023-03-01T03:25:16;24.17;;;14.15;;
27225;SDS011;14732;51.074;3.788;2023-03-01T03:27:43;25.80;;;14.50;;
27225;SDS011;14732;51.074;3.788;2023-03-01T03:30:12;26.42;;;14.90;;
27225;SDS011;14732;51.074;3.788;2023-03-01T03:32:40;24.55;;;15.25;;
27225;SDS011;14732;51.074;3.788;2023-03-01T03:35:07;23.27;;;14.65;;
27225;SDS011;14732;51.074;3.788;2023-03-01T03:37:43;29.70;;;15.43;;
27225;SDS011;14732;51.074;3.788;2023-03-01T03:40:28;29.77;;;15.43;;
27225;SDS011;14732;51.074;3.788;2023-03-01T03:42:56;27.67;;;15.27;;
27225;SDS011;14732;51.074;3.788;2023-03-01T03:45:22;28.60;;;15.75;;
27225;SDS011;14732;51.074;3.788;2023-03-01T03:47:48;27.48;;;15.70;;
27225;SDS011;14732;51.074;3.788;2023-03-01T03:50:14;26.20;;;16.23;;
27225;SDS011;14732;51.074;3.788;2023-03-01T03:52:41;27.60;;;15.65;;
27225;SDS011;14732;51.074;3.788;2023-03-01T03:55:08;26.30;;;16.17;;
27225;SDS011;14732;51.074;3.788;2023-03-01T03:57:36;26.92;;;16.13;;
27225;SDS011;14732;51.074;3.788;2023-03-01T04:00:07;29.80;;;16.67;;
27225;SDS011;14732;51.074;3.788;2023-03-01T04:02:44;27.02;;;15.77;;
27225;SDS011;14732;51.074;3.788;2023-03-01T04:05:12;26.90;;;16.33;;
27225;SDS011;14732;51.074;3.788;2023-03-01T04:07:39;26.33;;;15.30;;
27225;SDS011;14732;51.074;3.788;2023-03-01T04:10:07;28.45;;;16.27;;
27225;SDS011;14732;51.074;3.788;2023-03-01T04:12:38;30.73;;;16.13;;
27225;SDS011;14732;51.074;3.788;2023-03-01T04:15:04;30.83;;;17.17;;
27225;SDS011;14732;51.074;3.788;2023-03-01T04:17:45;27.15;;;16.60;;
27225;SDS011;14732;51.074;3.788;2023-03-01T04:20:16;28.63;;;16.90;;
27225;SDS011;14732;51.074;3.788;2023-03-01T04:22:49;27.23;;;15.70;;
27225;SDS011;14732;51.074;3.788;2023-03-01T04:25:22;24.73;;;15.32;;
27225;SDS011;14732;51.074;3.788;2023-03-01T04:27:48;25.83;;;15.35;;
27225;SDS011;14732;51.074;3.788;2023-03-01T04:30:14;29.27;;;15.80;;
27225;SDS011;14732;51.074;3.788;2023-03-01T04:32:41;27.42;;;15.90;;
27225;SDS011;14732;51.074;3.788;2023-03-01T04:35:07;27.80;;;16.45;;
27225;SDS011;14732;51.074;3.788;2023-03-01T04:37:33;30.05;;;16.35;;
27225;SDS011;14732;51.074;3.788;2023-03-01T04:40:00;28.15;;;15.57;;
27225;SDS011;14732;51.074;3.788;2023-03-01T04:42:40;27.10;;;15.77;;
27225;SDS011;14732;51.074;3.788;2023-03-01T04:45:07;28.38;;;16.15;;
27225;SDS011;14732;51.074;3.788;2023-03-01T04:47:41;31.20;;;16.50;;
27225;SDS011;14732;51.074;3.788;2023-03-01T04:50:10;29.08;;;16.27;;
27225;SDS011;14732;51.074;3.788;2023-03-01T04:55:04;28.00;;;15.52;;
27225;SDS011;14732;51.074;3.788;2023-03-01T04:57:30;28.63;;;15.32;;
27225;SDS011;14732;51.074;3.788;2023-03-01T04:59:56;26.80;;;15.45;;
27225;SDS011;14732;51.074;3.788;2023-03-01T05:02:22;29.02;;;16.27;;
27225;SDS011;14732;51.074;3.788;2023-03-01T05:04:48;28.70;;;17.05;;
27225;SDS011;14732;51.074;3.788;2023-03-01T05:07:14;30.10;;;17.15;;
27225;SDS011;14732;51.074;3.788;2023-03-01T05:09:47;31.88;;;17.02;;
27225;SDS011;14732;51.074;3.788;2023-03-01T05:12:13;30.73;;;16.55;;
27225;SDS011;14732;51.074;3.788;2023-03-01T05:14:40;26.77;;;16.20;;
27225;SDS011;14732;51.074;3.788;2023-03-01T05:17:06;30.23;;;17.85;;
27225;SDS011;14732;51.074;3.788;2023-03-01T05:19:33;33.30;;;17.83;;
27225;SDS011;14732;51.074;3.788;2023-03-01T05:22:00;29.95;;;17.10;;
27225;SDS011;14732;51.074;3.788;2023-03-01T05:24:26;32.80;;;18.08;;
27225;SDS011;14732;51.074;3.788;2023-03-01T05:26:53;29.85;;;17.77;;
27225;SDS011;14732;51.074;3.788;2023-03-01T05:29:19;30.55;;;17.63;;
27225;SDS011;14732;51.074;3.788;2023-03-01T05:31:56;31.52;;;17.27;;
27225;SDS011;14732;51.074;3.788;2023-03-01T05:34:26;30.35;;;17.10;;
27225;SDS011;14732;51.074;3.788;2023-03-01T05:36:53;32.47;;;18.23;;
27225;SDS011;14732;51.074;3.788;2023-03-01T05:39:21;28.38;;;17.05;;
27225;SDS011;14732;51.074;3.788;2023-03-01T05:41:48;34.00;;;18.50;;
27225;SDS011;14732;51.074;3.788;2023-03-01T05:44:19;29.73;;;17.63;;
27225;SDS011;14732;51.074;3.788;2023-03-01T05:46:45;30.55;;;17.83;;
27225;SDS011;14732;51.074;3.788;2023-03-01T05:49:11;29.52;;;17.65;;
27225;SDS011;14732;51.074;3.788;2023-03-01T05:51:39;29.73;;;16.52;;
27225;SDS011;14732;51.074;3.788;2023-03-01T05:54:06;31.33;;;17.02;;
27225;SDS011;14732;51.074;3.788;2023-03-01T05:56:33;30.85;;;17.67;;
27225;SDS011;14732;51.074;3.788;2023-03-01T05:59:00;28.08;;;16.65;;
27225;SDS011;14732;51.074;3.788;2023-03-01T06:01:27;29.00;;;16.60;;
27225;SDS011;14732;51.074;3.788;2023-03-01T06:03:52;30.27;;;16.90;;
27225;SDS011;14732;51.074;3.788;2023-03-01T06:06:18;30.90;;;17.55;;
27225;SDS011;14732;51.074;3.788;2023-03-01T06:08:44;33.65;;;16.48;;
27225;SDS011;14732;51.074;3.788;2023-03-01T06:11:09;30.15;;;17.67;;
27225;SDS011;14732;51.074;3.788;2023-03-01T06:13:35;27.85;;;16.02;;
27225;SDS011;14732;51.074;3.788;2023-03-01T06:16:03;31.15;;;16.67;;
27225;SDS011;14732;51.074;3.788;2023-03-01T06:20:56;27.17;;;14.98;;
27225;SDS011;14732;51.074;3.788;2023-03-01T06:23:22;27.55;;;15.60;;
27225;SDS011;14732;51.074;3.788;2023-03-01T06:25:49;30.48;;;16.60;;
27225;SDS011;14732;51.074;3.788;2023-03-01T06:28:15;29.13;;;16.33;;
27225;SDS011;14732;51.074;3.788;2023-03-01T06:30:40;33.85;;;17.73;;
27225;SDS011;14732;51.074;3.788;2023-03-01T06:33:06;32.83;;;18.27;;
27225;SDS011;14732;51.074;3.788;2023-03-01T06:35:32;34.17;;;17.50;;
27225;SDS011;14732;51.074;3.788;2023-03-01T06:37:58;30.33;;;16.65;;
27225;SDS011;14732;51.074;3.788;2023-03-01T06:40:25;37.63;;;17.05;;
27225;SDS011;14732;51.074;3.788;2023-03-01T06:42:51;35.60;;;19.35;;
27225;SDS011;14732;51.074;3.788;2023-03-01T06:45:17;36.20;;;19.20;;
27225;SDS011;14732;51.074;3.788;2023-03-01T06:47:44;38.03;;;19.02;;
27225;SDS011;14732;51.074;3.788;2023-03-01T06:50:10;35.97;;;18.83;;
27225;SDS011;14732;51.074;3.788;2023-03-01T06:52:36;30.40;;;16.63;;
27225;SDS011;14732;51.074;3.788;2023-03-01T06:55:02;29.27;;;16.65;;
27225;SDS011;14732;51.074;3.788;2023-03-01T06:57:28;26.40;;;15.60;;
27225;SDS011;14732;51.074;3.788;2023-03-01T06:59:54;30.00;;;16.27;;
27225;SDS011;14732;51.074;3.788;2023-03-01T07:02:20;27.88;;;16.58;;
27225;SDS011;14732;51.074;3.788;2023-03-01T07:04:46;26.73;;;14.50;;
27225;SDS011;14732;51.074;3.788;2023-03-01T07:07:13;24.75;;;14.25;;
27225;SDS011;14732;51.074;3.788;2023-03-01T07:09:39;25.08;;;14.60;;
27225;SDS011;14732;51.074;3.788;2023-03-01T07:12:04;25.63;;;13.90;;
27225;SDS011;14732;51.074;3.788;2023-03-01T07:14:30;21.45;;;13.20;;
27225;SDS011;14732;51.074;3.788;2023-03-01T07:16:56;21.17;;;13.13;;
27225;SDS011;14732;51.074;3.788;2023-03-01T07:19:22;22.75;;;12.77;;
27225;SDS011;14732;51.074;3.788;2023-03-01T07:21:48;21.67;;;12.45;;
27225;SDS011;14732;51.074;3.788;2023-03-01T07:24:13;17.85;;;11.13;;
27225;SDS011;14732;51.074;3.788;2023-03-01T07:26:39;22.13;;;12.93;;
27225;SDS011;14732;51.074;3.788;2023-03-01T07:29:05;21.10;;;12.20;;
27225;SDS011;14732;51.074;3.788;2023-03-01T07:31:32;20.05;;;11.65;;
27225;SDS011;14732;51.074;3.788;2023-03-01T07:33:58;22.00;;;11.98;;
27225;SDS011;14732;51.074;3.788;2023-03-01T07:36:24;18.25;;;11.82;;
27225;SDS011;14732;51.074;3.788;2023-03-01T07:38:50;20.95;;;12.20;;
27225;SDS011;14732;51.074;3.788;2023-03-01T07:41:16;20.30;;;10.18;;
27225;SDS011;14732;51.074;3.788;2023-03-01T07:43:42;15.43;;;9.65;;
27225;SDS011;14732;51.074;3.788;2023-03-01T07:46:08;13.93;;;9.55;;
27225;SDS011;14732;51.074;3.788;2023-03-01T07:48:36;16.88;;;9.13;;
27225;SDS011;14732;51.074;3.788;2023-03-01T07:51:03;16.52;;;9.90;;
27225;SDS011;14732;51.074;3.788;2023-03-01T07:53:30;18.67;;;9.82;;
27225;SDS011;14732;51.074;3.788;2023-03-01T07:56:03;14.75;;;9.55;;
27225;SDS011;14732;51.074;3.788;2023-03-01T07:58:33;17.80;;;10.23;;
27225;SDS011;14732;51.074;3.788;2023-03-01T08:01:01;17.13;;;10.38;;
27225;SDS011;14732;51.074;3.788;2023-03-01T08:03:30;15.27;;;9.50;;
27225;SDS011;14732;51.074;3.788;2023-03-01T08:05:58;17.27;;;9.95;;
27225;SDS011;14732;51.074;3.788;2023-03-01T08:08:25;14.13;;;9.02;;
27225;SDS011;14732;51.074;3.788;2023-03-01T08:10:51;14.50;;;9.18;;
27225;SDS011;14732;51.074;3.788;2023-03-01T08:13:17;13.38;;;8.43;;
27225;SDS011;14732;51.074;3.788;2023-03-01T08:15:47;11.98;;;7.88;;
27225;SDS011;14732;51.074;3.788;2023-03-01T08:18:16;13.52;;;7.97;;
27225;SDS011;14732;51.074;3.788;2023-03-01T08:20:43;13.55;;;7.95;;
27225;SDS011;14732;51.074;3.788;2023-03-01T08:23:09;11.02;;;7.05;;
27225;SDS011;14732;51.074;3.788;2023-03-01T08:25:35;10.55;;;7.07;;
27225;SDS011;14732;51.074;3.788;2023-03-01T08:28:01;12.20;;;7.45;;
27225;SDS011;14732;51.074;3.788;2023-03-01T08:30:27;11.88;;;7.90;;
27225;SDS011;14732;51.074;3.788;2023-03-01T08:32:52;10.65;;;6.82;;
27225;SDS011;14732;51.074;3.788;2023-03-01T08:35:19;11.73;;;7.43;;
27225;SDS011;14732;51.074;3.788;2023-03-01T08:37:44;10.95;;;6.90;;
27225;SDS011;14732;51.074;3.788;2023-03-01T08:40:10;10.45;;;7.00;;
27225;SDS011;14732;51.074;3.788;2023-03-01T08:42:38;11.48;;;6.82;;
27225;SDS011;14732;51.074;3.788;2023-03-01T08:45:04;10.88;;;6.60;;
27225;SDS011;14732;51.074;3.788;2023-03-01T08:47:31;9.20;;;6.50;;
27225;SDS011;14732;51.074;3.788;2023-03-01T08:49:58;9.75;;;6.68;;
27225;SDS011;14732;51.074;3.788;2023-03-01T08:52:24;10.10;;;6.78;;
27225;SDS011;14732;51.074;3.788;2023-03-01T08:54:51;10.50;;;6.28;;
27225;SDS011;14732;51.074;3.788;2023-03-01T08:57:17;11.95;;;6.68;;
27225;SDS011;14732;51.074;3.788;2023-03-01T08:59:43;9.80;;;6.40;;
27225;SDS011;14732;51.074;3.788;2023-03-01T09:02:16;10.05;;;6.40;;
27225;SDS011;14732;51.074;3.788;2023-03-01T09:04:43;8.90;;;6.45;;
27225;SDS011;14732;51.074;3.788;2023-03-01T09:07:09;10.77;;;6.75;;
27225;SDS011;14732;51.074;3.788;2023-03-01T09:09:35;8.88;;;6.80;;
27225;SDS011;14732;51.074;3.788;2023-03-01T09:12:02;9.52;;;6.88;;
27225;SDS011;14732;51.074;3.788;2023-03-01T09:14:29;11.82;;;7.15;;
27225;SDS011;14732;51.074;3.788;2023-03-01T09:16:54;11.75;;;7.38;;
27225;SDS011;14732;51.074;3.788;2023-03-01T09:19:20;10.93;;;7.47;;
27225;SDS011;14732;51.074;3.788;2023-03-01T09:21:48;11.45;;;8.55;;
27225;SDS011;14732;51.074;3.788;2023-03-01T09:24:19;10.50;;;7.40;;
27225;SDS011;14732;51.074;3.788;2023-03-01T09:26:47;9.82;;;7.38;;
27225;SDS011;14732;51.074;3.788;2023-03-01T09:31:43;9.02;;;6.97;;
27225;SDS011;14732;51.074;3.788;2023-03-01T09:34:10;10.35;;;6.72;;
27225;SDS011;14732;51.074;3.788;2023-03-01T09:36:36;9.73;;;7.07;;
27225;SDS011;14732;51.074;3.788;2023-03-01T09:39:02;8.65;;;7.30;;
27225;SDS011;14732;51.074;3.788;2023-03-01T09:44:24;8.73;;;6.30;;
27225;SDS011;14732;51.074;3.788;2023-03-01T09:47:16;10.68;;;6.88;;
27225;SDS011;14732;51.074;3.788;2023-03-01T09:53:05;11.40;;;7.05;;
27225;SDS011;14732;51.074;3.788;2023-03-01T10:01:10;11.63;;;6.60;;
27225;SDS011;14732;51.074;3.788;2023-03-01T10:03:43;10.13;;;6.03;;
27225;SDS011;14732;51.074;3.788;2023-03-01T10:06:19;8.25;;;5.70;;
27225;SDS011;14732;51.074;3.788;2023-03-01T10:11:48;10.30;;;5.65;;
27225;SDS011;14732;51.074;3.788;2023-03-01T10:14:27;11.90;;;6.07;;
27225;SDS011;14732;51.074;3.788;2023-03-01T10:17:04;10.55;;;6.10;;
27225;SDS011;14732;51.074;3.788;2023-03-01T10:19:43;11.15;;;7.55;;
27225;SDS011;14732;51.074;3.788;2023-03-01T10:22:16;13.18;;;6.72;;
27225;SDS011;14732;51.074;3.788;2023-03-01T10:24:53;12.73;;;6.57;;
27225;SDS011;14732;51.074;3.788;2023-03-01T10:27:26;14.13;;;6.13;;
27225;SDS011;14732;51.074;3.788;2023-03-01T10:32:49;9.73;;;6.75;;
27225;SDS011;14732;51.074;3.788;2023-03-01T10:37:57;11.98;;;6.70;;
27225;SDS011;14732;51.074;3.788;2023-03-01T10:40:32;12.20;;;6.45;;
27225;SDS011;14732;51.074;3.788;2023-03-01T10:43:14;10.15;;;6.18;;
27225;SDS011;14732;51.074;3.788;2023-03-01T10:45:40;12.70;;;7.18;;
27225;SDS011;14732;51.074;3.788;2023-03-01T10:48:16;12.35;;;6.55;;
27225;SDS011;14732;51.074;3.788;2023-03-01T10:50:51;11.77;;;6.75;;
27225;SDS011;14732;51.074;3.788;2023-03-01T10:53:35;8.57;;;6.22;;
27225;SDS011;14732;51.074;3.788;2023-03-01T10:56:12;8.90;;;6.00;;
27225;SDS011;14732;51.074;3.788;2023-03-01T10:59:03;7.88;;;6.28;;
27225;SDS011;14732;51.074;3.788;2023-03-01T11:01:34;10.15;;;6.28;;
27225;SDS011;14732;51.074;3.788;2023-03-01T11:06:35;7.90;;;5.20;;
27225;SDS011;14732;51.074;3.788;2023-03-01T11:09:15;9.98;;;5.63;;
27225;SDS011;14732;51.074;3.788;2023-03-01T11:11:43;6.57;;;5.40;;
27225;SDS011;14732;51.074;3.788;2023-03-01T11:16:47;7.50;;;4.72;;
27225;SDS011;14732;51.074;3.788;2023-03-01T11:19:23;9.52;;;5.53;;
27225;SDS011;14732;51.074;3.788;2023-03-01T11:21:52;11.65;;;6.07;;
27225;SDS011;14732;51.074;3.788;2023-03-01T11:24:30;9.20;;;5.57;;
27225;SDS011;14732;51.074;3.788;2023-03-01T11:27:04;8.75;;;4.97;;
27225;SDS011;14732;51.074;3.788;2023-03-01T11:29:41;11.27;;;5.70;;
27225;SDS011;14732;51.074;3.788;2023-03-01T11:32:20;10.80;;;5.88;;
27225;SDS011;14732;51.074;3.788;2023-03-01T11:35:02;8.20;;;5.68;;
27225;SDS011;14732;51.074;3.788;2023-03-01T11:48:26;8.73;;;4.95;;
27225;SDS011;14732;51.074;3.788;2023-03-01T11:52:17;7.72;;;5.40;;
27225;SDS011;14732;51.074;3.788;2023-03-01T12:00:06;6.75;;;5.07;;
27225;SDS011;14732;51.074;3.788;2023-03-01T12:02:53;11.60;;;5.15;;
27225;SDS011;14732;51.074;3.788;2023-03-01T12:10:35;7.90;;;5.07;;
27225;SDS011;14732;51.074;3.788;2023-03-01T12:16:27;6.88;;;4.70;;
27225;SDS011;14732;51.074;3.788;2023-03-01T12:31:02;7.38;;;4.05;;
27225;SDS011;14732;51.074;3.788;2023-03-01T12:34:01;7.57;;;4.38;;
27225;SDS011;14732;51.074;3.788;2023-03-01T12:45:40;8.07;;;4.60;;
27225;SDS011;14732;51.074;3.788;2023-03-01T12:48:36;7.85;;;4.55;;
27225;SDS011;14732;51.074;3.788;2023-03-01T12:51:14;5.13;;;3.85;;
27225;SDS011;14732;51.074;3.788;2023-03-01T12:53:47;6.05;;;4.20;;
27225;SDS011;14732;51.074;3.788;2023-03-01T12:56:24;7.80;;;4.53;;
27225;SDS011;14732;51.074;3.788;2023-03-01T13:01:41;8.07;;;3.88;;
27225;SDS011;14732;51.074;3.788;2023-03-01T13:17:49;6.88;;;4.57;;
27225;SDS011;14732;51.074;3.788;2023-03-01T13:20:22;7.53;;;4.20;;
27225;SDS011;14732;51.074;3.788;2023-03-01T13:23:00;9.32;;;5.00;;
27225;SDS011;14732;51.074;3.788;2023-03-01T13:25:30;9.25;;;4.90;;
27225;SDS011;14732;51.074;3.788;2023-03-01T13:28:36;7.65;;;4.82;;
27225;SDS011;14732;51.074;3.788;2023-03-01T13:31:04;6.57;;;5.00;;
27225;SDS011;14732;51.074;3.788;2023-03-01T13:36:05;7.05;;;4.45;;
27225;SDS011;14732;51.074;3.788;2023-03-01T13:41:13;9.77;;;5.07;;
27225;SDS011;14732;51.074;3.788;2023-03-01T13:43:41;7.38;;;5.22;;
27225;SDS011;14732;51.074;3.788;2023-03-01T13:46:16;7.30;;;4.55;;
27225;SDS011;14732;51.074;3.788;2023-03-01T13:48:45;5.70;;;4.90;;
27225;SDS011;14732;51.074;3.788;2023-03-01T13:51:16;6.72;;;4.53;;
27225;SDS011;14732;51.074;3.788;2023-03-01T13:53:50;8.75;;;5.43;;
27225;SDS011;14732;51.074;3.788;2023-03-01T13:56:25;7.38;;;5.00;;
27225;SDS011;14732;51.074;3.788;2023-03-01T14:01:32;7.13;;;4.78;;
27225;SDS011;14732;51.074;3.788;2023-03-01T14:04:01;9.48;;;5.68;;
27225;SDS011;14732;51.074;3.788;2023-03-01T14:06:31;9.32;;;5.43;;
27225;SDS011;14732;51.074;3.788;2023-03-01T14:09:05;7.90;;;5.68;;
27225;SDS011;14732;51.074;3.788;2023-03-01T14:19:43;8.27;;;5.35;;
27225;SDS011;14732;51.074;3.788;2023-03-01T14:22:26;6.78;;;5.20;;
27225;SDS011;14732;51.074;3.788;2023-03-01T14:24:58;12.70;;;5.82;;
27225;SDS011;14732;51.074;3.788;2023-03-01T14:27:40;8.10;;;5.22;;
27225;SDS011;14732;51.074;3.788;2023-03-01T14:32:55;7.70;;;5.32;;
27225;SDS011;14732;51.074;3.788;2023-03-01T14:35:25;9.30;;;5.40;;
27225;SDS011;14732;51.074;3.788;2023-03-01T14:37:57;8.18;;;5.53;;
27225;SDS011;14732;51.074;3.788;2023-03-01T14:40:25;8.18;;;5.28;;
27225;SDS011;14732;51.074;3.788;2023-03-01T14:42:50;8.73;;;5.93;;
27225;SDS011;14732;51.074;3.788;2023-03-01T14:45:17;7.65;;;5.43;;
27225;SDS011;14732;51.074;3.788;2023-03-01T14:47:43;9.85;;;5.50;;
27225;SDS011;14732;51.074;3.788;2023-03-01T14:50:28;8.63;;;5.13;;
27225;SDS011;14732;51.074;3.788;2023-03-01T14:52:57;8.32;;;5.57;;
27225;SDS011;14732;51.074;3.788;2023-03-01T14:55:38;7.95;;;5.43;;
27225;SDS011;14732;51.074;3.788;2023-03-01T14:58:14;7.43;;;5.20;;
27225;SDS011;14732;51.074;3.788;2023-03-01T15:00:49;11.07;;;5.20;;
27225;SDS011;14732;51.074;3.788;2023-03-01T15:03:41;11.90;;;5.32;;
27225;SDS011;14732;51.074;3.788;2023-03-01T15:06:07;7.65;;;5.40;;
27225;SDS011;14732;51.074;3.788;2023-03-01T15:08:35;9.90;;;5.18;;
27225;SDS011;14732;51.074;3.788;2023-03-01T15:13:53;6.15;;;5.10;;
27225;SDS011;14732;51.074;3.788;2023-03-01T15:16:21;7.20;;;5.32;;
27225;SDS011;14732;51.074;3.788;2023-03-01T15:18:58;9.00;;;5.43;;
27225;SDS011;14732;51.074;3.788;2023-03-01T15:21:33;8.60;;;5.33;;
27225;SDS011;14732;51.074;3.788;2023-03-01T15:26:44;8.40;;;5.38;;
27225;SDS011;14732;51.074;3.788;2023-03-01T15:29:32;11.65;;;5.50;;
27225;SDS011;14732;51.074;3.788;2023-03-01T15:34:34;9.95;;;5.85;;
27225;SDS011;14732;51.074;3.788;2023-03-01T15:37:36;8.43;;;6.10;;
27225;SDS011;14732;51.074;3.788;2023-03-01T15:40:17;8.75;;;5.45;;
27225;SDS011;14732;51.074;3.788;2023-03-01T15:42:56;8.48;;;5.57;;
27225;SDS011;14732;51.074;3.788;2023-03-01T15:45:24;9.10;;;6.80;;
27225;SDS011;14732;51.074;3.788;2023-03-01T15:47:56;9.40;;;6.80;;
27225;SDS011;14732;51.074;3.788;2023-03-01T15:50:30;13.45;;;8.63;;
27225;SDS011;14732;51.074;3.788;2023-03-01T15:52:58;8.13;;;5.47;;
27225;SDS011;14732;51.074;3.788;2023-03-01T15:55:27;8.60;;;5.97;;
27225;SDS011;14732;51.074;3.788;2023-03-01T15:58:05;18.50;;;10.83;;
27225;SDS011;14732;51.074;3.788;2023-03-01T16:00:37;14.10;;;8.77;;
27225;SDS011;14732;51.074;3.788;2023-03-01T16:03:04;11.05;;;6.47;;
27225;SDS011;14732;51.074;3.788;2023-03-01T16:05:31;11.77;;;7.15;;
27225;SDS011;14732;51.074;3.788;2023-03-01T16:07:59;13.32;;;8.40;;
27225;SDS011;14732;51.074;3.788;2023-03-01T16:10:25;14.25;;;8.57;;
27225;SDS011;14732;51.074;3.788;2023-03-01T16:12:52;16.85;;;11.27;;
27225;SDS011;14732;51.074;3.788;2023-03-01T16:15:20;10.45;;;7.07;;
27225;SDS011;14732;51.074;3.788;2023-03-01T16:17:46;8.85;;;6.18;;
27225;SDS011;14732;51.074;3.788;2023-03-01T16:20:12;12.02;;;6.28;;
27225;SDS011;14732;51.074;3.788;2023-03-01T16:22:40;11.38;;;5.95;;
27225;SDS011;14732;51.074;3.788;2023-03-01T16:25:11;12.55;;;5.88;;
27225;SDS011;14732;51.074;3.788;2023-03-01T16:27:38;10.70;;;6.28;;
27225;SDS011;14732;51.074;3.788;2023-03-01T16:30:06;9.98;;;6.43;;
27225;SDS011;14732;51.074;3.788;2023-03-01T16:32:33;11.57;;;6.70;;
27225;SDS011;14732;51.074;3.788;2023-03-01T16:35:04;9.80;;;6.10;;
27225;SDS011;14732;51.074;3.788;2023-03-01T16:37:31;11.13;;;6.10;;
27225;SDS011;14732;51.074;3.788;2023-03-01T16:39:58;10.35;;;6.47;;
27225;SDS011;14732;51.074;3.788;2023-03-01T16:42:24;13.00;;;6.97;;
27225;SDS011;14732;51.074;3.788;2023-03-01T16:44:54;13.63;;;6.82;;
27225;SDS011;14732;51.074;3.788;2023-03-01T16:47:20;8.50;;;6.15;;
27225;SDS011;14732;51.074;3.788;2023-03-01T16:49:46;9.55;;;6.43;;
27225;SDS011;14732;51.074;3.788;2023-03-01T16:52:12;10.82;;;6.35;;
27225;SDS011;14732;51.074;3.788;2023-03-01T16:54:38;11.13;;;6.70;;
27225;SDS011;14732;51.074;3.788;2023-03-01T16:57:04;9.10;;;6.50;;
27225;SDS011;14732;51.074;3.788;2023-03-01T16:59:30;11.70;;;7.45;;
27225;SDS011;14732;51.074;3.788;2023-03-01T17:01:57;9.82;;;6.53;;
27225;SDS011;14732;51.074;3.788;2023-03-01T17:04:25;11.93;;;6.60;;
27225;SDS011;14732;51.074;3.788;2023-03-01T17:06:50;12.00;;;6.70;;
27225;SDS011;14732;51.074;3.788;2023-03-01T17:09:16;11.30;;;6.68;;
27225;SDS011;14732;51.074;3.788;2023-03-01T17:11:42;9.60;;;6.45;;